Time;durP1;ratioP1;P1;durP2;ratioP2;P2;SDS_P1;SDS_P2;PMS_P1;PMS_P2;Temp;Humidity;BMP_temperature;BMP_pressure;BME280_temperature;BME280_humidity;BME280_pressure;Samples;Min_cycle;Max_cycle;Signal;HPM_P1;HPM_P2
2022/11/04 00:02:38;;;;;;;23.85;12.73;;;8.00;99.90;;;;;;4981183;28;20219;-93
2022/11/04 00:05:27;;;;;;;28.50;13.07;;;8.10;99.90;;;;;;5003406;28;20242;-90
2022/11/04 00:08:25;;;;;;;22.75;11.95;;;8.00;99.90;;;;;;5007974;28;20263;-90
2022/11/04 00:14:20;;;;;;;23.15;12.73;;;8.20;99.90;;;;;;4990553;28;20247;-91
2022/11/04 00:17:20;;;;;;;20.83;12.30;;;8.10;99.90;;;;;;4996447;28;20400;-89
2022/11/04 00:29:29;;;;;;;25.67;12.93;;;8.00;99.90;;;;;;4981523;28;20245;-82
2022/11/04 00:35:26;;;;;;;24.50;12.97;;;7.80;99.90;;;;;;4986218;28;20309;-83
2022/11/04 00:38:14;;;;;;;26.60;13.23;;;7.80;99.90;;;;;;4990735;28;20223;-90
2022/11/04 00:41:24;;;;;;;25.27;11.70;;;7.80;99.90;;;;;;4991858;28;20226;-91
2022/11/04 00:44:35;;;;;;;24.63;12.70;;;7.80;99.90;;;;;;4991426;28;20222;-92
2022/11/04 00:47:25;;;;;;;21.83;12.60;;;7.70;99.90;;;;;;4973591;28;20219;-89
2022/11/04 00:50:15;;;;;;;23.73;12.75;;;7.70;99.90;;;;;;4991927;28;20227;-91
2022/11/04 00:53:04;;;;;;;27.65;12.73;;;7.80;99.90;;;;;;4992726;28;20245;-88
2022/11/04 00:55:58;;;;;;;26.40;12.80;;;7.70;99.90;;;;;;4978455;28;20226;-90
2022/11/04 00:58:48;;;;;;;26.60;12.77;;;7.70;99.90;;;;;;4989523;28;20563;-93
2022/11/04 01:01:38;;;;;;;29.02;12.93;;;7.80;99.90;;;;;;4986580;28;20716;-78
2022/11/04 01:04:28;;;;;;;25.60;12.40;;;7.70;99.90;;;;;;4985079;28;20236;-86
2022/11/04 01:07:17;;;;;;;22.52;11.95;;;7.70;99.90;;;;;;4970445;28;20298;-82
2022/11/04 01:10:07;;;;;;;21.80;11.18;;;7.70;99.90;;;;;;4991611;28;20218;-81
2022/11/04 01:12:55;;;;;;;28.95;12.27;;;7.70;99.90;;;;;;4982193;28;20226;-86
2022/11/04 01:15:44;;;;;;;25.77;12.13;;;7.80;99.90;;;;;;4995315;28;20226;-86
2022/11/04 01:18:33;;;;;;;26.47;12.07;;;7.80;99.90;;;;;;4992296;28;20215;-85
2022/11/04 01:21:23;;;;;;;21.70;12.73;;;7.90;99.90;;;;;;4977084;28;20290;-83
2022/11/04 01:24:12;;;;;;;20.77;11.80;;;7.70;99.90;;;;;;4989270;28;20230;-84
2022/11/04 01:27:01;;;;;;;21.48;11.60;;;7.80;99.90;;;;;;4998199;28;20332;-86
2022/11/04 01:29:49;;;;;;;26.43;12.37;;;7.80;99.90;;;;;;4979927;28;20228;-84
2022/11/04 01:32:38;;;;;;;20.98;11.13;;;7.90;99.90;;;;;;4997271;28;20221;-84
2022/11/04 01:35:27;;;;;;;26.55;12.43;;;7.90;99.90;;;;;;4993455;28;20242;-84
2022/11/04 01:38:17;;;;;;;22.63;12.40;;;8.00;99.90;;;;;;4992914;28;20229;-81
2022/11/04 01:41:07;;;;;;;24.70;12.20;;;8.00;99.90;;;;;;4968986;28;20219;-81
2022/11/04 01:43:57;;;;;;;24.53;12.40;;;7.90;99.90;;;;;;4991249;28;20214;-82
2022/11/04 01:46:51;;;;;;;21.05;11.18;;;8.00;99.90;;;;;;4989935;28;20258;-81
2022/11/04 01:49:40;;;;;;;24.08;11.88;;;8.00;99.90;;;;;;4979852;28;20226;-82
2022/11/04 01:52:35;;;;;;;23.23;12.13;;;8.10;99.90;;;;;;4992904;28;21030;-81
2022/11/04 01:55:29;;;;;;;23.33;11.25;;;8.10;99.90;;;;;;4990857;28;20718;-83
2022/11/04 01:58:21;;;;;;;17.57;11.20;;;8.10;99.90;;;;;;4991386;28;20233;-82
2022/11/04 02:01:11;;;;;;;19.83;11.98;;;8.10;99.90;;;;;;4986747;28;20215;-82
2022/11/04 02:04:24;;;;;;;22.63;11.85;;;8.10;99.90;;;;;;4994451;28;20586;-82
2022/11/04 02:07:12;;;;;;;27.57;12.17;;;8.20;99.90;;;;;;4987656;28;20694;-80
2022/11/04 02:10:01;;;;;;;20.63;11.17;;;8.10;99.90;;;;;;4991045;28;20266;-82
2022/11/04 02:12:54;;;;;;;19.57;10.70;;;8.10;99.90;;;;;;4993015;28;20705;-82
2022/11/04 02:15:48;;;;;;;20.53;10.40;;;8.10;99.90;;;;;;4994231;28;20697;-82
2022/11/04 02:18:50;;;;;;;19.97;11.30;;;8.00;99.90;;;;;;4992954;28;20229;-83
2022/11/04 02:22:08;;;;;;;21.73;11.20;;;8.10;99.90;;;;;;4991227;28;20263;-84
2022/11/04 02:25:31;;;;;;;21.40;11.10;;;8.00;99.90;;;;;;4992888;28;20211;-83
2022/11/04 02:28:52;;;;;;;20.17;10.63;;;8.10;99.90;;;;;;4991973;28;20229;-84
2022/11/04 02:31:46;;;;;;;21.55;10.95;;;8.10;99.90;;;;;;5006407;28;20657;-84
2022/11/04 02:34:43;;;;;;;21.02;10.35;;;8.10;99.90;;;;;;4984086;28;20824;-83
2022/11/04 02:37:42;;;;;;;18.20;10.27;;;8.30;99.90;;;;;;4992111;28;20585;-84
2022/11/04 02:40:39;;;;;;;21.35;10.75;;;8.30;99.90;;;;;;4993361;28;20657;-84
2022/11/04 02:43:36;;;;;;;21.75;11.55;;;8.30;99.90;;;;;;4988904;28;20635;-83
2022/11/04 02:46:32;;;;;;;19.88;10.13;;;8.30;99.90;;;;;;4990118;28;20639;-84
2022/11/04 02:49:30;;;;;;;22.73;10.63;;;8.40;99.90;;;;;;4976962;28;20242;-83
2022/11/04 02:52:26;;;;;;;18.55;10.13;;;8.30;99.90;;;;;;4996133;28;20218;-83
2022/11/04 02:55:20;;;;;;;17.23;9.85;;;8.20;99.90;;;;;;4996169;28;20294;-84
2022/11/04 02:58:14;;;;;;;21.53;9.90;;;8.20;99.90;;;;;;4999266;28;20253;-85
2022/11/04 03:01:05;;;;;;;17.85;9.38;;;8.20;99.90;;;;;;4989957;28;20223;-85
2022/11/04 03:04:00;;;;;;;22.52;9.80;;;8.30;99.90;;;;;;4983014;28;20232;-83
2022/11/04 03:06:53;;;;;;;20.40;10.52;;;8.30;99.90;;;;;;4989401;28;20223;-83
2022/11/04 03:09:49;;;;;;;22.90;10.00;;;8.30;99.90;;;;;;4987272;28;20700;-83
2022/11/04 03:12:43;;;;;;;19.67;9.88;;;8.30;99.90;;;;;;4982233;28;20306;-84
2022/11/04 03:15:34;;;;;;;17.77;10.07;;;8.30;99.90;;;;;;4969012;28;20602;-84
2022/11/04 03:18:30;;;;;;;23.23;9.98;;;8.40;99.90;;;;;;4985738;28;20337;-81
2022/11/04 03:21:20;;;;;;;19.48;9.90;;;8.30;99.90;;;;;;4987393;28;20219;-83
2022/11/04 03:24:10;;;;;;;17.92;10.10;;;8.40;99.90;;;;;;5008465;28;20211;-84
2022/11/04 03:27:01;;;;;;;17.13;9.77;;;8.50;99.90;;;;;;5004088;28;20354;-80
2022/11/04 03:29:58;;;;;;;18.17;10.45;;;8.50;99.90;;;;;;4981857;28;20249;-84
2022/11/04 03:32:57;;;;;;;24.58;10.10;;;8.50;99.90;;;;;;4975677;28;20230;-84
2022/11/04 03:35:46;;;;;;;16.65;9.98;;;8.50;99.90;;;;;;4980818;28;20227;-82
2022/11/04 03:38:35;;;;;;;21.43;10.00;;;8.50;99.90;;;;;;4990995;28;20222;-88
2022/11/04 03:41:34;;;;;;;16.77;10.13;;;8.50;99.90;;;;;;4991176;28;20237;-84
2022/11/04 03:44:27;;;;;;;18.90;9.97;;;8.40;99.90;;;;;;4992318;28;20321;-84
2022/11/04 03:47:17;;;;;;;17.93;9.97;;;8.40;99.90;;;;;;4993267;28;20581;-84
2022/11/04 03:50:10;;;;;;;21.42;10.80;;;8.40;99.90;;;;;;4985915;28;20540;-83
2022/11/04 03:53:00;;;;;;;20.37;10.10;;;8.50;99.90;;;;;;4987574;28;20256;-83
2022/11/04 03:56:05;;;;;;;25.33;10.80;;;8.30;99.90;;;;;;4993775;28;20231;-84
2022/11/04 03:59:07;;;;;;;20.23;10.43;;;8.40;99.90;;;;;;5014425;28;20245;-86
2022/11/04 04:02:00;;;;;;;22.90;10.63;;;8.30;99.90;;;;;;5005482;28;20218;-86
2022/11/04 04:04:56;;;;;;;19.08;9.98;;;8.30;99.90;;;;;;4981500;28;20703;-86
2022/11/04 04:07:49;;;;;;;20.90;10.67;;;8.40;99.90;;;;;;4996382;28;20544;-86
2022/11/04 04:10:42;;;;;;;24.17;10.10;;;8.40;99.90;;;;;;4979819;28;20233;-84
2022/11/04 04:13:38;;;;;;;19.88;9.38;;;8.40;99.90;;;;;;4988022;28;20226;-84
2022/11/04 04:16:34;;;;;;;19.50;10.17;;;8.40;99.90;;;;;;4986068;28;20234;-84
2022/11/04 04:19:23;;;;;;;17.57;9.93;;;8.40;99.90;;;;;;4991745;28;20744;-85
2022/11/04 04:22:17;;;;;;;16.23;9.77;;;8.50;99.90;;;;;;4973319;28;20249;-83
2022/11/04 04:28:18;;;;;;;18.17;9.95;;;8.60;99.90;;;;;;4995241;28;20608;-82
2022/11/04 04:31:08;;;;;;;20.30;10.05;;;8.60;99.90;;;;;;4986250;28;21105;-82
2022/11/04 04:33:58;;;;;;;19.53;9.57;;;8.70;99.90;;;;;;4978767;28;20585;-84
2022/11/04 04:36:52;;;;;;;18.27;9.48;;;8.70;99.90;;;;;;4992861;28;20217;-84
2022/11/04 04:46:01;;;;;;;18.85;9.18;;;8.60;99.90;;;;;;4990121;28;20698;-85
2022/11/04 04:48:50;;;;;;;18.23;8.98;;;8.70;99.90;;;;;;4975841;28;20230;-84
2022/11/04 04:51:44;;;;;;;17.73;8.85;;;8.70;99.90;;;;;;4993485;28;20708;-84
2022/11/04 04:54:32;;;;;;;18.77;9.52;;;8.80;99.90;;;;;;4997316;28;20701;-84
2022/11/04 04:57:21;;;;;;;17.40;9.20;;;8.90;99.90;;;;;;4997559;28;20218;-84
2022/11/04 05:00:13;;;;;;;15.30;8.50;;;8.90;99.90;;;;;;4984625;28;20233;-83
2022/11/04 05:03:02;;;;;;;23.17;9.07;;;8.80;99.90;;;;;;4986468;28;20273;-85
2022/11/04 05:05:50;;;;;;;15.40;9.10;;;8.80;99.90;;;;;;4983120;28;20222;-86
2022/11/04 05:08:45;;;;;;;17.85;9.30;;;8.80;99.90;;;;;;4996130;28;20710;-86
2022/11/04 05:11:33;;;;;;;15.23;8.60;;;8.80;99.90;;;;;;4987471;28;20237;-83
2022/11/04 05:14:22;;;;;;;16.47;9.23;;;8.70;99.90;;;;;;4985738;28;20579;-84
2022/11/04 05:17:11;;;;;;;16.15;8.52;;;8.80;99.90;;;;;;4996622;28;20214;-80
2022/11/04 05:19:59;;;;;;;15.90;10.00;;;8.80;99.90;;;;;;4991350;28;20594;-81
2022/11/04 05:22:48;;;;;;;18.00;9.23;;;8.80;99.90;;;;;;4988732;28;20254;-81
2022/11/04 05:25:39;;;;;;;17.45;9.00;;;8.80;99.90;;;;;;4993431;28;20693;-83
2022/11/04 05:28:28;;;;;;;17.08;8.90;;;8.80;99.90;;;;;;4991676;28;20511;-83
2022/11/04 05:31:17;;;;;;;20.77;8.60;;;8.80;99.90;;;;;;4975610;28;20575;-83
2022/11/04 05:34:06;;;;;;;17.20;9.43;;;8.90;99.90;;;;;;4995178;28;20234;-81
2022/11/04 05:36:54;;;;;;;18.77;8.98;;;8.80;99.90;;;;;;4992277;28;20214;-82
2022/11/04 05:39:43;;;;;;;22.35;9.48;;;8.90;99.90;;;;;;5001409;28;20226;-88
2022/11/04 05:42:35;;;;;;;18.85;9.90;;;8.90;99.90;;;;;;5014071;28;20207;-90
2022/11/04 05:45:24;;;;;;;13.98;8.80;;;8.90;99.90;;;;;;4997430;28;20203;-86
2022/11/04 05:48:13;;;;;;;17.52;9.13;;;8.80;99.90;;;;;;5001688;28;20277;-90
2022/11/04 05:51:01;;;;;;;15.38;8.77;;;8.80;99.90;;;;;;4987858;28;20246;-87
2022/11/04 05:53:50;;;;;;;17.27;9.02;;;8.80;99.90;;;;;;4979738;28;20233;-86
2022/11/04 05:56:39;;;;;;;17.80;9.02;;;8.80;99.90;;;;;;4992248;28;20913;-85
2022/11/04 05:59:29;;;;;;;21.02;9.48;;;9.00;99.90;;;;;;4995241;28;20223;-87
2022/11/04 06:02:17;;;;;;;18.38;9.13;;;9.00;99.90;;;;;;4988540;28;20395;-87
2022/11/04 06:05:08;;;;;;;13.95;7.80;;;8.90;99.90;;;;;;4974960;28;20227;-83
2022/11/04 06:07:57;;;;;;;18.02;8.98;;;8.80;99.90;;;;;;4980455;28;20231;-83
2022/11/04 06:10:45;;;;;;;18.63;8.60;;;8.80;99.90;;;;;;4985028;28;20234;-83
2022/11/04 06:13:34;;;;;;;15.45;8.38;;;8.90;99.90;;;;;;4988960;28;20224;-82
2022/11/04 06:16:25;;;;;;;14.15;8.38;;;8.90;99.90;;;;;;4969419;28;20218;-83
2022/11/04 06:19:13;;;;;;;17.17;9.02;;;8.90;99.90;;;;;;4980890;28;20364;-83
2022/11/04 06:22:03;;;;;;;18.33;8.88;;;8.90;99.90;;;;;;4971733;28;20234;-83
2022/11/04 06:24:52;;;;;;;18.83;9.38;;;8.80;99.90;;;;;;4987572;28;20223;-83
2022/11/04 06:27:41;;;;;;;17.65;8.93;;;8.80;99.90;;;;;;4971090;28;20698;-83
2022/11/04 06:30:30;;;;;;;15.73;8.20;;;8.80;99.90;;;;;;4970035;28;20226;-83
2022/11/04 06:33:20;;;;;;;16.17;8.50;;;8.80;99.90;;;;;;4987726;28;20222;-83
2022/11/04 06:36:12;;;;;;;14.65;8.65;;;8.90;99.90;;;;;;4981895;28;20560;-84
2022/11/04 06:39:01;;;;;;;17.67;8.40;;;8.90;99.90;;;;;;4985792;28;20223;-85
2022/11/04 06:41:52;;;;;;;16.83;8.70;;;8.90;99.90;;;;;;4971960;28;20225;-83
2022/11/04 06:44:45;;;;;;;17.65;8.48;;;8.90;99.90;;;;;;4986805;28;20317;-84
2022/11/04 06:47:34;;;;;;;16.00;8.75;;;9.00;99.90;;;;;;4985698;28;20976;-84
2022/11/04 06:50:24;;;;;;;15.63;8.27;;;9.10;99.90;;;;;;4979727;28;20372;-83
2022/11/04 06:53:14;;;;;;;16.50;8.60;;;9.20;99.90;;;;;;4989212;28;20230;-84
2022/11/04 06:56:05;;;;;;;19.75;8.82;;;9.20;99.90;;;;;;4981865;28;20231;-82
2022/11/04 06:58:54;;;;;;;16.25;8.43;;;9.30;99.90;;;;;;4983033;28;20238;-82
2022/11/04 07:01:43;;;;;;;16.08;8.50;;;9.20;99.90;;;;;;4968688;28;20230;-82
2022/11/04 07:04:32;;;;;;;17.77;8.27;;;9.40;99.90;;;;;;4985285;28;20673;-89
2022/11/04 07:07:22;;;;;;;18.27;8.93;;;9.50;99.90;;;;;;4987347;28;20249;-85
2022/11/04 07:10:14;;;;;;;12.95;8.27;;;9.60;99.90;;;;;;4985807;28;20223;-83
2022/11/04 07:13:03;;;;;;;18.50;7.95;;;9.50;99.90;;;;;;4992643;28;20218;-83
2022/11/04 07:15:52;;;;;;;18.13;8.20;;;9.50;99.90;;;;;;4986619;28;21199;-84
2022/11/04 07:18:40;;;;;;;19.67;9.57;;;9.50;99.90;;;;;;4978594;28;20219;-90
2022/11/04 07:21:29;;;;;;;17.58;9.23;;;9.50;99.90;;;;;;4969684;28;20231;-85
2022/11/04 07:24:20;;;;;;;14.95;8.77;;;9.50;99.90;;;;;;4979821;28;20244;-84
2022/11/04 07:27:08;;;;;;;15.93;8.48;;;9.70;99.90;;;;;;5002075;28;20310;-88
2022/11/04 07:29:57;;;;;;;17.40;8.95;;;9.60;99.90;;;;;;4996574;28;20319;-86
2022/11/04 07:32:46;;;;;;;16.83;9.77;;;9.80;99.90;;;;;;5004410;28;20728;-90
2022/11/04 07:35:36;;;;;;;19.80;9.07;;;9.80;99.90;;;;;;4974573;28;20242;-83
2022/11/04 07:38:25;;;;;;;15.75;8.65;;;9.90;99.90;;;;;;4974536;28;20321;-85
2022/11/04 07:41:16;;;;;;;15.32;8.00;;;9.90;99.90;;;;;;4985853;28;20219;-82
2022/11/04 07:44:05;;;;;;;15.70;9.18;;;10.00;99.90;;;;;;4969614;28;20313;-82
2022/11/04 07:46:54;;;;;;;16.90;8.82;;;10.00;99.90;;;;;;4968768;28;20222;-84
2022/11/04 07:49:43;;;;;;;13.80;9.02;;;10.10;99.90;;;;;;4981556;28;20230;-84
2022/11/04 07:52:32;;;;;;;18.63;9.05;;;10.10;99.90;;;;;;4976519;28;20231;-83
2022/11/04 07:55:21;;;;;;;18.98;9.48;;;10.10;99.90;;;;;;4965476;28;20229;-85
2022/11/04 07:58:11;;;;;;;14.55;9.20;;;10.20;99.90;;;;;;4982795;28;20223;-85
2022/11/04 08:01:00;;;;;;;18.17;9.35;;;10.20;99.90;;;;;;4986505;28;20231;-83
2022/11/04 08:03:49;;;;;;;17.20;9.40;;;10.20;99.90;;;;;;4984540;28;20231;-84
2022/11/04 08:06:38;;;;;;;16.13;9.77;;;10.20;99.90;;;;;;4986049;28;20233;-82
2022/11/04 08:09:27;;;;;;;17.00;9.63;;;10.10;99.90;;;;;;4990188;28;20230;-84
2022/11/04 08:12:16;;;;;;;15.20;9.95;;;10.00;99.90;;;;;;4976099;28;20234;-84
2022/11/04 08:15:07;;;;;;;15.50;9.85;;;10.00;99.90;;;;;;4982009;28;20235;-83
2022/11/04 08:17:56;;;;;;;17.33;9.45;;;10.10;99.90;;;;;;4986064;28;20287;-83
2022/11/04 08:20:48;;;;;;;18.67;10.48;;;10.10;99.90;;;;;;4970526;28;20220;-83
2022/11/04 08:23:40;;;;;;;16.48;9.75;;;10.20;99.90;;;;;;4983433;28;20230;-84
2022/11/04 08:26:30;;;;;;;16.08;9.38;;;10.10;99.90;;;;;;4984382;28;20222;-82
2022/11/04 08:29:19;;;;;;;19.85;9.77;;;10.00;99.90;;;;;;4982259;28;20232;-82
2022/11/04 08:32:09;;;;;;;16.08;9.80;;;10.10;99.90;;;;;;4987702;28;20725;-76
2022/11/04 08:34:58;;;;;;;14.10;9.80;;;10.20;99.90;;;;;;4977729;28;20215;-78
2022/11/04 08:37:47;;;;;;;17.05;9.25;;;10.20;99.90;;;;;;4980908;28;20231;-80
2022/11/04 08:40:36;;;;;;;17.48;9.82;;;10.20;99.90;;;;;;4985278;28;20242;-81
2022/11/04 08:43:25;;;;;;;23.23;10.60;;;10.30;99.90;;;;;;4986231;28;20239;-80
2022/11/04 08:46:15;;;;;;;15.95;9.45;;;10.30;99.90;;;;;;4977590;28;20226;-81
2022/11/04 08:49:05;;;;;;;15.55;9.88;;;10.40;99.90;;;;;;4992221;28;20261;-80
2022/11/04 08:51:59;;;;;;;14.88;9.02;;;10.30;99.90;;;;;;4979557;28;20227;-83
2022/11/04 08:54:48;;;;;;;15.10;9.05;;;10.30;99.90;;;;;;4982973;28;20537;-80
2022/11/04 08:57:43;;;;;;;17.65;10.50;;;10.40;99.90;;;;;;4988409;28;20689;-82
2022/11/04 09:00:32;;;;;;;17.42;9.48;;;10.50;99.90;;;;;;4987654;28;20230;-81
2022/11/04 09:03:21;;;;;;;18.05;9.63;;;10.50;99.90;;;;;;4989822;28;20227;-80
2022/11/04 09:06:14;;;;;;;20.45;9.98;;;10.60;99.90;;;;;;4985242;28;20217;-81
2022/11/04 09:09:03;;;;;;;17.73;10.00;;;10.60;99.90;;;;;;4999534;28;20230;-80
2022/11/04 09:11:52;;;;;;;18.30;9.65;;;10.60;99.90;;;;;;4995894;28;20234;-81
2022/11/04 09:14:41;;;;;;;17.17;9.25;;;10.50;99.90;;;;;;4991033;28;20249;-81
2022/11/04 09:17:30;;;;;;;20.02;9.93;;;10.50;99.90;;;;;;4984469;28;20226;-81
2022/11/04 09:20:19;;;;;;;18.05;9.32;;;10.60;99.90;;;;;;4983610;28;20222;-81
2022/11/04 09:23:09;;;;;;;20.35;10.15;;;10.50;99.90;;;;;;4969596;28;20253;-81
2022/11/04 09:26:03;;;;;;;17.52;9.02;;;10.70;99.90;;;;;;4984288;28;20248;-78
2022/11/04 09:28:54;;;;;;;17.08;8.90;;;10.70;99.90;;;;;;4983360;28;20306;-78
2022/11/04 09:31:43;;;;;;;18.05;9.73;;;10.80;99.90;;;;;;4986129;28;20675;-77
2022/11/04 09:34:32;;;;;;;18.90;9.38;;;11.00;99.90;;;;;;4986464;28;20226;-77
2022/11/04 09:37:20;;;;;;;20.08;9.50;;;10.80;99.90;;;;;;4978637;28;20239;-79
2022/11/04 09:40:17;;;;;;;19.10;9.50;;;11.00;99.90;;;;;;4983063;28;20231;-78
2022/11/04 09:43:18;;;;;;;17.45;9.52;;;10.90;99.90;;;;;;4967798;28;20223;-79
2022/11/04 09:46:11;;;;;;;18.13;9.05;;;10.70;99.90;;;;;;4965348;28;20226;-80
2022/11/04 09:49:03;;;;;;;18.63;9.57;;;10.80;99.90;;;;;;4982503;28;20579;-78
2022/11/04 09:51:52;;;;;;;21.90;9.63;;;10.80;99.90;;;;;;4987868;28;20388;-79
2022/11/04 09:54:50;;;;;;;17.60;10.32;;;10.90;99.90;;;;;;4984800;28;20231;-80
2022/11/04 09:57:41;;;;;;;18.88;9.15;;;10.90;99.90;;;;;;4974803;28;20602;-80
2022/11/04 10:00:32;;;;;;;17.77;9.85;;;11.10;99.90;;;;;;4992129;28;20602;-81
2022/11/04 10:03:37;;;;;;;17.00;10.45;;;10.90;99.90;;;;;;4972265;28;20214;-81
2022/11/04 10:06:36;;;;;;;16.77;9.95;;;11.00;99.90;;;;;;4986623;28;20932;-79
2022/11/04 10:09:37;;;;;;;17.52;10.02;;;10.90;99.90;;;;;;4988627;28;20226;-80
2022/11/04 10:12:45;;;;;;;18.98;9.77;;;11.00;99.90;;;;;;4986670;28;20226;-79
2022/11/04 10:15:49;;;;;;;19.77;9.80;;;10.90;99.90;;;;;;4983936;28;20238;-77
2022/11/04 10:18:52;;;;;;;16.55;9.27;;;10.90;99.90;;;;;;4977402;28;20226;-81
2022/11/04 10:21:47;;;;;;;18.05;9.75;;;11.00;99.90;;;;;;4978197;28;20223;-81
2022/11/04 10:24:42;;;;;;;18.83;9.77;;;11.10;99.90;;;;;;4970029;28;20226;-82
2022/11/04 10:27:36;;;;;;;16.60;9.15;;;11.10;99.90;;;;;;4976096;28;20251;-82
2022/11/04 10:30:28;;;;;;;17.25;10.13;;;11.30;99.90;;;;;;4969525;28;20237;-80
2022/11/04 10:33:24;;;;;;;19.25;9.73;;;11.30;99.90;;;;;;4971941;28;20211;-78
2022/11/04 10:36:12;;;;;;;17.58;9.50;;;11.40;99.90;;;;;;4968770;28;20230;-77
2022/11/04 10:39:04;;;;;;;18.00;9.23;;;11.70;99.90;;;;;;4994127;28;20344;-79
2022/11/04 10:41:54;;;;;;;20.52;10.00;;;11.60;99.90;;;;;;4970435;28;20241;-79
2022/11/04 10:44:45;;;;;;;21.45;9.43;;;11.50;99.90;;;;;;4980263;28;20792;-79
2022/11/04 10:47:44;;;;;;;18.40;10.13;;;11.40;99.90;;;;;;4968527;28;20224;-78
2022/11/04 10:50:37;;;;;;;17.08;9.43;;;11.50;99.90;;;;;;4988786;28;20226;-75
2022/11/04 10:53:28;;;;;;;21.48;10.50;;;11.60;99.90;;;;;;4984572;28;20710;-76
2022/11/04 10:56:22;;;;;;;18.65;10.45;;;11.70;99.90;;;;;;4970978;28;20305;-76
2022/11/04 10:59:22;;;;;;;16.42;9.98;;;11.60;99.90;;;;;;4977414;28;20219;-78
2022/11/04 11:02:11;;;;;;;23.55;10.23;;;11.70;99.90;;;;;;4980162;28;20777;-79
2022/11/04 11:05:15;;;;;;;19.00;9.88;;;11.90;99.90;;;;;;4970538;28;20771;-80
2022/11/04 11:08:04;;;;;;;17.58;9.82;;;11.80;99.90;;;;;;4983714;28;21903;-81
2022/11/04 11:10:52;;;;;;;16.63;9.65;;;12.00;99.90;;;;;;4978768;28;20302;-80
2022/11/04 11:13:43;;;;;;;15.30;9.38;;;12.20;99.90;;;;;;4971311;28;20236;-80
2022/11/04 11:16:32;;;;;;;17.05;9.15;;;12.50;99.90;;;;;;4979356;28;20717;-80
2022/11/04 11:19:23;;;;;;;18.27;9.27;;;12.60;99.90;;;;;;4977585;28;20234;-80
2022/11/04 11:22:30;;;;;;;16.60;9.18;;;12.60;99.90;;;;;;4990117;28;20229;-79
2022/11/04 11:25:27;;;;;;;14.23;9.50;;;12.60;99.90;;;;;;4988105;28;20225;-78
2022/11/04 11:28:23;;;;;;;14.07;8.80;;;12.50;99.90;;;;;;4985234;28;20755;-79
2022/11/04 11:31:22;;;;;;;18.08;8.88;;;12.60;99.90;;;;;;4982986;28;20223;-80
2022/11/04 11:34:19;;;;;;;17.50;9.15;;;12.50;99.90;;;;;;4968431;28;20326;-79
2022/11/04 11:37:19;;;;;;;14.48;9.50;;;12.60;99.90;;;;;;4971520;28;20234;-80
2022/11/04 11:40:24;;;;;;;17.23;8.75;;;12.70;99.90;;;;;;4985738;28;20222;-79
2022/11/04 11:43:23;;;;;;;17.23;8.27;;;12.70;99.90;;;;;;4982394;28;20223;-86
2022/11/04 11:46:13;;;;;;;14.07;8.55;;;12.70;99.90;;;;;;4982487;28;20227;-87
2022/11/04 11:49:04;;;;;;;16.05;8.38;;;12.60;99.90;;;;;;4984045;28;20219;-81
2022/11/04 11:51:52;;;;;;;18.02;9.05;;;12.60;99.90;;;;;;4979250;28;20233;-81
2022/11/04 11:54:43;;;;;;;16.70;9.30;;;12.60;99.90;;;;;;4965959;28;20218;-80
2022/11/04 11:57:44;;;;;;;19.13;9.25;;;12.50;99.90;;;;;;4971054;28;20231;-81
2022/11/04 12:01:00;;;;;;;15.43;8.80;;;12.60;99.90;;;;;;4978094;28;20963;-80
2022/11/04 12:04:00;;;;;;;16.80;9.35;;;12.60;99.90;;;;;;4970424;28;20225;-80
2022/11/04 12:07:18;;;;;;;13.75;8.80;;;12.70;99.90;;;;;;4967526;28;20298;-80
2022/11/04 12:10:35;;;;;;;16.58;9.13;;;12.80;99.90;;;;;;4984322;28;20713;-80
2022/11/04 12:13:46;;;;;;;17.13;8.77;;;12.70;99.90;;;;;;4966413;28;20222;-80
2022/11/04 12:16:43;;;;;;;15.60;9.43;;;12.70;99.90;;;;;;4986982;28;20230;-79
2022/11/04 12:20:04;;;;;;;16.73;8.55;;;12.70;99.90;;;;;;4971796;28;20257;-83
2022/11/04 12:23:07;;;;;;;18.50;9.00;;;12.80;99.90;;;;;;4961467;28;20547;-82
2022/11/04 12:26:11;;;;;;;14.48;8.55;;;12.70;99.90;;;;;;4975716;28;20230;-82
2022/11/04 12:29:26;;;;;;;16.73;9.27;;;12.70;99.90;;;;;;4986403;28;20858;-85
2022/11/04 12:32:27;;;;;;;16.80;9.55;;;12.90;99.90;;;;;;4978149;28;20278;-78
2022/11/04 12:35:35;;;;;;;14.65;8.70;;;12.90;99.90;;;;;;4982989;28;20245;-80
2022/11/04 12:38:58;;;;;;;13.20;8.50;;;12.90;99.90;;;;;;4977934;28;20561;-79
2022/11/04 12:41:57;;;;;;;17.45;9.35;;;12.70;99.90;;;;;;4980280;28;20261;-80
2022/11/04 12:45:24;;;;;;;15.88;9.15;;;12.70;99.90;;;;;;4979973;28;20235;-77
2022/11/04 12:48:27;;;;;;;15.65;8.80;;;12.70;99.90;;;;;;4975599;28;20918;-80
2022/11/04 12:51:21;;;;;;;18.98;9.15;;;12.70;99.90;;;;;;4981479;28;20745;-80
2022/11/04 12:54:38;;;;;;;12.13;7.90;;;12.70;99.90;;;;;;4975565;28;20288;-81
2022/11/04 12:57:36;;;;;;;16.80;8.50;;;12.80;99.90;;;;;;4977267;28;20238;-82
2022/11/04 13:00:29;;;;;;;18.00;7.97;;;12.70;99.90;;;;;;4976905;28;20222;-81
2022/11/04 13:03:29;;;;;;;13.75;8.55;;;12.70;99.90;;;;;;4964956;28;20257;-83
2022/11/04 13:06:22;;;;;;;12.77;8.45;;;12.70;99.90;;;;;;4983157;28;20229;-83
2022/11/04 13:09:16;;;;;;;13.77;7.72;;;12.80;99.90;;;;;;4979765;28;20736;-83
2022/11/04 13:12:11;;;;;;;12.45;7.75;;;12.80;99.90;;;;;;4975644;28;20314;-83
2022/11/04 13:15:03;;;;;;;13.48;7.75;;;12.90;99.90;;;;;;4968034;28;20238;-81
2022/11/04 13:18:00;;;;;;;19.63;8.52;;;12.90;99.90;;;;;;4981462;28;20222;-83
2022/11/04 13:20:55;;;;;;;12.98;8.05;;;12.90;99.90;;;;;;4978839;28;20223;-83
2022/11/04 13:23:56;;;;;;;14.35;8.23;;;12.80;99.90;;;;;;4984389;28;20329;-83
2022/11/04 13:26:44;;;;;;;13.35;8.15;;;13.00;99.90;;;;;;4967078;28;20589;-82
2022/11/04 13:29:35;;;;;;;15.95;8.40;;;13.00;99.90;;;;;;4984957;28;20226;-83
2022/11/04 13:32:30;;;;;;;13.32;7.90;;;13.00;99.90;;;;;;4968342;28;20234;-81
2022/11/04 13:35:30;;;;;;;13.27;7.70;;;13.00;99.90;;;;;;4983467;28;20685;-82
2022/11/04 13:38:22;;;;;;;12.65;7.88;;;13.00;99.90;;;;;;4977841;28;20342;-82
2022/11/04 13:41:48;;;;;;;13.38;7.60;;;13.00;99.90;;;;;;4979339;28;20956;-82
2022/11/04 13:44:39;;;;;;;13.85;7.47;;;13.00;99.90;;;;;;4974231;28;20237;-83
2022/11/04 13:47:33;;;;;;;13.70;7.97;;;13.00;99.90;;;;;;4985462;28;20770;-81
2022/11/04 13:50:40;;;;;;;12.25;7.40;;;12.90;99.90;;;;;;4985824;28;20602;-82
2022/11/04 13:53:42;;;;;;;13.45;7.78;;;12.90;99.90;;;;;;4994521;28;20233;-83
2022/11/04 13:56:34;;;;;;;13.90;7.93;;;12.90;99.90;;;;;;4977758;28;20234;-82
2022/11/04 13:59:27;;;;;;;14.50;7.90;;;12.80;99.90;;;;;;4991409;28;20230;-81
2022/11/04 14:02:39;;;;;;;15.73;7.90;;;12.80;99.90;;;;;;4986093;28;20229;-81
2022/11/04 14:06:05;;;;;;;12.40;7.90;;;12.80;99.90;;;;;;4984881;28;20237;-79
2022/11/04 14:09:23;;;;;;;17.33;8.25;;;12.80;99.90;;;;;;4971555;28;20744;-80
2022/11/04 14:12:34;;;;;;;14.48;8.25;;;12.80;99.90;;;;;;4982168;28;20700;-80
2022/11/04 14:16:00;;;;;;;13.20;8.27;;;12.70;99.90;;;;;;4986387;28;20320;-81
2022/11/04 14:18:50;;;;;;;14.43;8.20;;;12.70;99.90;;;;;;4987176;28;20218;-81
2022/11/04 14:22:06;;;;;;;18.60;8.25;;;12.50;99.90;;;;;;4994705;28;20246;-82
2022/11/04 14:24:57;;;;;;;12.95;7.97;;;12.50;99.90;;;;;;4969077;28;20221;-81
2022/11/04 14:27:48;;;;;;;15.43;8.43;;;12.40;99.90;;;;;;4974145;28;20707;-81
2022/11/04 14:30:44;;;;;;;18.40;8.43;;;12.40;99.90;;;;;;4964531;28;20280;-80
2022/11/04 14:33:39;;;;;;;13.52;8.13;;;12.40;99.90;;;;;;4971339;28;20259;-81
2022/11/04 14:36:34;;;;;;;12.52;7.95;;;12.40;99.90;;;;;;4976970;28;20683;-82
2022/11/04 14:39:29;;;;;;;18.90;8.07;;;12.30;99.90;;;;;;4980917;28;20222;-83
2022/11/04 14:42:43;;;;;;;17.42;8.50;;;12.30;99.90;;;;;;4975837;28;20640;-80
2022/11/04 14:45:40;;;;;;;16.75;8.77;;;12.20;99.90;;;;;;4977634;28;20765;-83
2022/11/04 14:48:30;;;;;;;19.02;8.43;;;12.10;99.90;;;;;;4974046;28;20235;-80
2022/11/04 14:51:24;;;;;;;15.90;8.70;;;12.10;99.90;;;;;;4966637;28;20667;-83
2022/11/04 14:54:21;;;;;;;15.07;8.07;;;12.10;99.90;;;;;;4966261;28;20222;-82
2022/11/04 14:57:19;;;;;;;17.50;8.70;;;12.10;99.90;;;;;;4979986;28;20222;-79
2022/11/04 15:00:39;;;;;;;20.60;8.70;;;12.00;99.90;;;;;;4983235;28;20736;-79
2022/11/04 15:03:33;;;;;;;13.82;8.50;;;12.00;99.90;;;;;;4901779;29;20249;-79
2022/11/04 15:06:42;;;;;;;16.48;8.85;;;12.00;99.90;;;;;;4964030;28;20302;-78
2022/11/04 15:09:49;;;;;;;17.33;8.98;;;11.90;99.90;;;;;;4974526;28;20223;-76
2022/11/04 15:12:50;;;;;;;12.45;7.90;;;11.90;99.90;;;;;;4976733;28;20977;-79
2022/11/04 15:15:43;;;;;;;14.25;8.55;;;11.90;99.90;;;;;;4979312;28;20230;-78
2022/11/04 15:18:32;;;;;;;14.57;9.07;;;12.00;99.90;;;;;;4979192;28;20359;-78
2022/11/04 15:21:21;;;;;;;18.23;9.00;;;12.00;99.90;;;;;;4979950;28;20219;-80
2022/11/04 15:24:15;;;;;;;15.55;9.00;;;12.00;99.90;;;;;;4979585;28;20230;-77